Time;durP1;ratioP1;P1;durP2;ratioP2;P2;SDS_P1;SDS_P2;PMS_P1;PMS_P2;Temp;Humidity;BMP_temperature;BMP_pressure;BME280_temperature;BME280_humidity;BME280_pressure;Samples;Min_cycle;Max_cycle;Signal;HPM_P1;HPM_P2
2021/08/24 00:01:47;;;;;;;11.63;5.30;;;12.20;99.90;;;;;;5027743;28;20044;-63
2021/08/24 00:04:13;;;;;;;12.85;5.00;;;12.10;99.90;;;;;;5028522;28;20026;-63
2021/08/24 00:06:38;;;;;;;10.70;5.22;;;12.00;99.90;;;;;;5033831;28;20026;-64
2021/08/24 00:09:05;;;;;;;10.52;5.32;;;12.00;99.90;;;;;;5037396;28;20401;-63
2021/08/24 00:11:33;;;;;;;12.88;5.70;;;11.80;99.90;;;;;;5028354;28;20031;-64
2021/08/24 00:14:01;;;;;;;14.35;5.78;;;11.70;99.90;;;;;;5026415;28;20018;-63
2021/08/24 00:16:26;;;;;;;11.05;5.45;;;11.80;99.90;;;;;;5031903;28;20068;-63
2021/08/24 00:18:52;;;;;;;10.80;5.10;;;11.80;99.90;;;;;;5034364;28;20033;-63
2021/08/24 00:21:17;;;;;;;11.40;5.30;;;11.80;99.90;;;;;;5027302;28;20040;-63
2021/08/24 00:23:43;;;;;;;10.43;5.35;;;11.80;99.90;;;;;;5031654;28;20053;-63
2021/08/24 00:26:09;;;;;;;12.65;5.70;;;11.70;99.90;;;;;;5030423;28;20017;-63
2021/08/24 00:28:34;;;;;;;12.95;5.20;;;11.80;99.90;;;;;;5027498;28;20041;-63
2021/08/24 00:31:00;;;;;;;10.10;5.00;;;11.70;99.90;;;;;;5030643;28;20061;-63
2021/08/24 00:33:25;;;;;;;13.55;4.68;;;11.70;99.90;;;;;;5026183;28;20083;-63
2021/08/24 00:35:51;;;;;;;11.15;5.50;;;11.70;99.90;;;;;;5029023;28;20653;-63
2021/08/24 00:38:22;;;;;;;11.27;5.28;;;11.60;99.90;;;;;;5029083;28;20026;-63
2021/08/24 00:40:58;;;;;;;;;;;11.50;99.90;;;;;;5032013;28;20378;-64
2021/08/24 00:43:26;;;;;;;10.50;5.63;;;11.50;99.90;;;;;;5031552;28;19912;-64
2021/08/24 00:45:57;;;;;;;12.75;5.90;;;11.40;99.90;;;;;;5027534;28;20026;-64
2021/08/24 00:48:28;;;;;;;11.05;5.72;;;11.30;99.90;;;;;;5026145;28;20108;-63
2021/08/24 00:50:55;;;;;;;12.50;6.00;;;11.20;99.90;;;;;;5033864;28;20426;-63
2021/08/24 00:53:24;;;;;;;13.60;5.60;;;11.00;99.90;;;;;;5032662;28;20040;-63
2021/08/24 00:55:52;;;;;;;12.25;5.50;;;11.00;99.90;;;;;;5027022;28;20028;-63
2021/08/24 00:58:18;;;;;;;12.95;6.22;;;10.90;99.90;;;;;;5026948;28;20017;-63
2021/08/24 01:00:45;;;;;;;12.52;6.03;;;11.10;99.90;;;;;;5033789;28;20548;-63
2021/08/24 01:03:18;;;;;;;14.48;6.88;;;11.10;99.90;;;;;;5038463;28;20469;-63
2021/08/24 01:05:47;;;;;;;12.05;6.60;;;11.30;99.90;;;;;;5029297;28;20025;-63
2021/08/24 01:08:18;;;;;;;13.38;6.43;;;11.00;99.90;;;;;;5031277;28;20017;-63
2021/08/24 01:11:23;;;;;;;12.15;6.32;;;10.70;99.90;;;;;;5033494;28;20021;-63
2021/08/24 01:14:08;;;;;;;11.73;6.00;;;10.70;99.90;;;;;;5030613;28;20338;-63
2021/08/24 01:16:41;;;;;;;12.90;5.82;;;10.60;99.90;;;;;;5036152;28;20041;-63
2021/08/24 01:19:28;;;;;;;14.13;6.32;;;10.70;99.90;;;;;;5040446;28;20025;-63
2021/08/24 01:22:35;;;;;;;11.60;5.93;;;10.70;99.90;;;;;;5037893;28;20029;-63
2021/08/24 01:25:18;;;;;;;12.18;6.03;;;10.70;99.90;;;;;;5032773;28;20477;-63
2021/08/24 01:27:54;;;;;;;11.00;5.78;;;10.70;99.90;;;;;;5036890;28;20025;-63
2021/08/24 01:30:42;;;;;;;12.55;6.18;;;10.60;99.90;;;;;;5037269;28;20108;-63
2021/08/24 01:33:22;;;;;;;12.73;6.00;;;10.50;99.90;;;;;;5031866;28;20476;-63
2021/08/24 01:36:06;;;;;;;14.07;6.28;;;10.50;99.90;;;;;;5031936;28;20543;-63
2021/08/24 01:38:39;;;;;;;10.95;5.63;;;10.40;99.90;;;;;;5039858;28;20024;-63
2021/08/24 01:41:22;;;;;;;14.95;6.40;;;10.40;99.90;;;;;;5036424;28;20025;-63
2021/08/24 01:44:07;;;;;;;11.88;6.03;;;10.60;99.90;;;;;;5034559;28;20035;-63
2021/08/24 01:46:47;;;;;;;13.30;6.60;;;10.70;99.90;;;;;;5041068;28;20029;-63
2021/08/24 01:49:16;;;;;;;14.35;6.20;;;10.40;99.90;;;;;;5039118;28;20386;-63
2021/08/24 01:51:47;;;;;;;13.55;6.25;;;10.40;99.90;;;;;;5042406;28;20044;-63
2021/08/24 01:54:41;;;;;;;11.90;6.32;;;10.30;99.90;;;;;;5038615;28;20036;-63
2021/08/24 01:57:13;;;;;;;13.25;6.60;;;10.30;99.90;;;;;;5030983;28;20051;-63
2021/08/24 01:59:48;;;;;;;14.18;6.70;;;10.10;99.90;;;;;;5041700;28;20029;-63
2021/08/24 02:02:27;;;;;;;14.70;6.65;;;10.30;99.90;;;;;;5037947;28;20396;-63
2021/08/24 02:05:03;;;;;;;13.75;6.28;;;10.20;99.90;;;;;;5033191;28;20037;-63
2021/08/24 02:07:32;;;;;;;12.77;6.70;;;10.00;99.90;;;;;;5043346;28;20389;-63
2021/08/24 02:10:04;;;;;;;13.70;6.13;;;10.10;99.90;;;;;;5030674;28;20076;-63
2021/08/24 02:12:33;;;;;;;13.68;6.55;;;9.90;99.90;;;;;;5037135;28;20108;-63
2021/08/24 02:15:00;;;;;;;13.50;6.43;;;10.00;99.90;;;;;;5032926;28;20041;-63
2021/08/24 02:17:29;;;;;;;18.35;7.13;;;9.90;99.90;;;;;;5043887;28;20397;-63
2021/08/24 02:20:02;;;;;;;14.70;6.75;;;10.10;99.90;;;;;;5038833;28;20059;-63
2021/08/24 02:22:32;;;;;;;17.63;7.30;;;9.80;99.90;;;;;;5036731;28;20013;-63
2021/08/24 02:25:11;;;;;;;16.42;7.53;;;9.80;99.90;;;;;;5032274;28;20457;-63
2021/08/24 02:27:43;;;;;;;13.55;7.10;;;9.80;99.90;;;;;;5035523;28;20107;-63
2021/08/24 02:30:10;;;;;;;16.45;7.75;;;10.00;99.90;;;;;;5030594;28;20028;-63
2021/08/24 02:32:41;;;;;;;15.43;7.47;;;9.90;99.90;;;;;;5027889;28;20071;-63
2021/08/24 02:35:35;;;;;;;18.23;7.72;;;9.90;99.90;;;;;;5030118;28;20116;-63
2021/08/24 02:38:09;;;;;;;17.23;8.13;;;9.70;99.90;;;;;;5032169;28;20043;-63
2021/08/24 02:40:52;;;;;;;17.85;8.65;;;9.90;99.90;;;;;;5036829;28;20068;-63
2021/08/24 02:43:29;;;;;;;18.40;8.68;;;10.20;99.90;;;;;;5034094;28;20025;-63
2021/08/24 02:46:02;;;;;;;17.25;8.48;;;10.00;99.90;;;;;;5038218;28;20104;-63
2021/08/24 02:48:29;;;;;;;17.33;8.00;;;10.10;99.90;;;;;;5030361;28;20108;-63
2021/08/24 02:50:55;;;;;;;15.45;8.55;;;10.20;99.90;;;;;;5044751;28;20392;-63
2021/08/24 02:53:22;;;;;;;14.25;7.53;;;10.10;99.90;;;;;;5038901;28;20485;-63
2021/08/24 02:55:49;;;;;;;14.25;7.78;;;10.00;99.90;;;;;;5034354;28;20033;-63
2021/08/24 02:58:15;;;;;;;15.27;8.00;;;9.80;99.90;;;;;;5033830;28;20036;-63
2021/08/24 03:00:42;;;;;;;13.32;7.45;;;9.70;99.90;;;;;;5029239;28;20029;-63
2021/08/24 03:03:08;;;;;;;18.05;8.20;;;9.80;99.90;;;;;;5035714;28;20079;-63
2021/08/24 03:05:34;;;;;;;16.17;8.55;;;9.70;99.90;;;;;;5033480;28;20477;-63
2021/08/24 03:08:00;;;;;;;15.25;8.10;;;9.70;99.90;;;;;;5032095;28;20531;-62
2021/08/24 03:10:30;;;;;;;16.08;7.97;;;9.90;99.90;;;;;;5027654;28;20087;-62
2021/08/24 03:13:18;;;;;;;14.47;7.73;;;9.60;99.90;;;;;;5033385;28;20024;-62
2021/08/24 03:15:51;;;;;;;15.02;7.63;;;9.60;99.90;;;;;;5035058;28;20280;-62
2021/08/24 03:18:19;;;;;;;16.80;7.75;;;9.50;99.90;;;;;;5032076;28;20053;-62
2021/08/24 03:20:48;;;;;;;17.00;7.75;;;9.40;99.90;;;;;;5026720;28;20029;-62
2021/08/24 03:23:17;;;;;;;18.50;9.48;;;9.20;99.90;;;;;;5040502;28;20500;-62
2021/08/24 03:25:45;;;;;;;18.90;8.88;;;9.30;99.90;;;;;;5028319;28;20025;-62
2021/08/24 03:28:16;;;;;;;17.70;9.27;;;9.10;99.90;;;;;;5032992;28;20079;-63
2021/08/24 03:30:42;;;;;;;15.63;7.45;;;9.00;99.90;;;;;;5032147;28;20108;-63
2021/08/24 03:33:09;;;;;;;17.77;8.63;;;9.00;99.90;;;;;;5034984;28;20512;-63
2021/08/24 03:35:35;;;;;;;15.85;7.53;;;9.00;99.90;;;;;;5035855;28;20029;-63
2021/08/24 03:38:01;;;;;;;16.92;8.05;;;8.90;99.90;;;;;;5031285;28;20523;-63
2021/08/24 03:40:27;;;;;;;15.02;7.07;;;9.10;99.90;;;;;;5028295;28;20715;-63
2021/08/24 03:42:55;;;;;;;14.18;7.15;;;9.60;99.90;;;;;;5034212;28;20044;-63
2021/08/24 03:45:20;;;;;;;18.38;7.40;;;9.90;99.90;;;;;;5031920;28;20130;-63
2021/08/24 03:47:46;;;;;;;14.82;7.53;;;9.50;99.90;;;;;;5031296;28;20068;-63
2021/08/24 03:50:12;;;;;;;17.05;8.43;;;9.40;99.90;;;;;;5047059;28;20025;-63
2021/08/24 03:52:38;;;;;;;17.30;7.88;;;9.40;99.90;;;;;;5032984;28;20053;-63
2021/08/24 03:55:04;;;;;;;13.10;7.10;;;9.20;99.90;;;;;;5033844;28;20035;-63
2021/08/24 03:57:29;;;;;;;15.07;8.07;;;9.10;99.90;;;;;;5032198;28;20509;-63
2021/08/24 03:59:56;;;;;;;17.38;8.10;;;9.20;99.90;;;;;;5028760;28;20025;-63
2021/08/24 04:02:22;;;;;;;17.60;8.45;;;9.30;99.90;;;;;;5032611;28;20373;-63
2021/08/24 04:04:48;;;;;;;15.95;8.90;;;9.20;99.90;;;;;;5033092;28;20135;-63
2021/08/24 04:07:14;;;;;;;15.68;8.45;;;9.20;99.90;;;;;;5026740;28;20104;-63
2021/08/24 04:09:39;;;;;;;20.58;9.52;;;9.00;99.90;;;;;;5027165;28;20030;-63
2021/08/24 04:12:05;;;;;;;14.85;8.27;;;9.30;99.90;;;;;;5030843;28;20025;-63
2021/08/24 04:14:31;;;;;;;17.50;8.63;;;9.30;99.90;;;;;;5030170;28;20033;-63
2021/08/24 04:16:56;;;;;;;19.15;9.27;;;9.10;99.90;;;;;;5029286;28;20080;-63
2021/08/24 04:19:22;;;;;;;17.00;9.23;;;9.00;99.90;;;;;;5027270;28;20388;-63
2021/08/24 04:21:48;;;;;;;17.40;8.75;;;9.10;99.90;;;;;;5032587;28;20099;-62
2021/08/24 04:24:14;;;;;;;21.65;9.32;;;9.00;99.90;;;;;;5032143;28;20481;-62
2021/08/24 04:26:39;;;;;;;17.15;8.48;;;9.10;99.90;;;;;;5029628;28;20378;-62
2021/08/24 04:29:05;;;;;;;18.98;8.93;;;9.00;99.90;;;;;;5034196;28;20033;-62
2021/08/24 04:31:34;;;;;;;22.63;10.20;;;9.00;99.90;;;;;;5030930;28;20104;-63
2021/08/24 04:34:00;;;;;;;19.93;9.33;;;9.10;99.90;;;;;;5029724;28;20026;-63
2021/08/24 04:36:26;;;;;;;22.40;10.23;;;9.20;99.90;;;;;;5032723;28;20025;-63
2021/08/24 04:38:51;;;;;;;18.38;8.82;;;9.10;99.90;;;;;;5037209;28;20091;-63
2021/08/24 04:41:17;;;;;;;19.52;9.27;;;9.10;99.90;;;;;;5041535;28;20032;-62
2021/08/24 04:43:42;;;;;;;17.60;8.50;;;9.00;99.90;;;;;;5037973;28;20124;-62
2021/08/24 04:46:08;;;;;;;19.33;9.27;;;9.00;99.90;;;;;;5040198;28;20036;-62
2021/08/24 04:48:34;;;;;;;19.48;8.90;;;9.00;99.90;;;;;;5040252;28;20120;-62
2021/08/24 04:51:00;;;;;;;18.65;8.75;;;9.10;99.90;;;;;;5032538;28;20427;-63
2021/08/24 04:53:26;;;;;;;20.35;9.23;;;9.10;99.90;;;;;;5037394;28;20036;-62
2021/08/24 04:55:53;;;;;;;17.27;9.38;;;9.00;99.90;;;;;;5042861;28;20376;-62
2021/08/24 04:58:19;;;;;;;22.00;10.43;;;8.80;99.90;;;;;;5034125;28;20067;-63
2021/08/24 05:00:45;;;;;;;19.23;9.15;;;8.80;99.90;;;;;;5038341;28;20021;-63
2021/08/24 05:03:11;;;;;;;16.73;9.10;;;8.80;99.90;;;;;;5044098;28;20033;-62
2021/08/24 05:05:36;;;;;;;21.55;9.52;;;8.90;99.90;;;;;;5032758;28;20029;-62
2021/08/24 05:08:03;;;;;;;23.80;9.32;;;9.00;99.90;;;;;;5036773;28;20028;-63
2021/08/24 05:10:29;;;;;;;20.00;9.85;;;9.20;99.90;;;;;;5040131;28;20028;-63
2021/08/24 05:12:55;;;;;;;19.67;9.20;;;9.30;99.90;;;;;;5040048;28;20036;-62
2021/08/24 05:15:21;;;;;;;19.73;9.90;;;9.40;99.90;;;;;;5040585;28;20036;-63
2021/08/24 05:17:48;;;;;;;17.63;9.73;;;9.40;99.90;;;;;;5037196;28;20078;-63
2021/08/24 05:20:14;;;;;;;18.95;9.82;;;9.30;99.90;;;;;;5039704;28;20013;-63
2021/08/24 05:22:44;;;;;;;21.90;10.52;;;9.50;99.90;;;;;;5034037;28;20374;-63
2021/08/24 05:25:12;;;;;;;19.33;9.25;;;9.70;99.90;;;;;;5036648;28;20044;-63
2021/08/24 05:27:38;;;;;;;19.88;9.73;;;9.70;99.90;;;;;;5038063;28;20042;-63
2021/08/24 05:30:07;;;;;;;22.55;10.57;;;9.80;99.90;;;;;;5037884;28;20083;-63
2021/08/24 05:32:32;;;;;;;21.05;10.35;;;9.80;99.90;;;;;;5030959;28;20124;-62
2021/08/24 05:34:58;;;;;;;20.23;10.02;;;9.80;99.90;;;;;;5035171;28;20080;-62
2021/08/24 05:37:24;;;;;;;22.23;10.85;;;9.80;99.90;;;;;;5034941;28;20029;-62
2021/08/24 05:39:49;;;;;;;25.35;11.32;;;9.90;99.90;;;;;;5033721;28;20025;-62
2021/08/24 05:42:15;;;;;;;21.40;11.25;;;10.00;99.90;;;;;;5035221;28;20472;-62
2021/08/24 05:44:41;;;;;;;21.25;10.98;;;10.20;99.90;;;;;;5031169;28;20511;-62
2021/08/24 05:47:07;;;;;;;23.70;11.00;;;10.20;99.90;;;;;;5030292;28;20037;-63
2021/08/24 05:49:36;;;;;;;26.02;12.18;;;10.30;99.90;;;;;;5037070;28;20275;-62
2021/08/24 05:52:02;;;;;;;24.95;13.18;;;10.40;99.90;;;;;;5032499;28;20040;-62
2021/08/24 05:54:28;;;;;;;31.52;12.32;;;10.50;99.90;;;;;;5032866;28;20032;-62
2021/08/24 05:56:54;;;;;;;31.65;12.82;;;10.60;99.90;;;;;;5031493;28;20038;-62
2021/08/24 05:59:20;;;;;;;24.27;12.55;;;10.70;99.90;;;;;;5026075;28;20131;-62
2021/08/24 06:01:46;;;;;;;24.02;12.73;;;10.70;99.90;;;;;;5033540;28;20051;-62
2021/08/24 06:04:11;;;;;;;23.48;12.13;;;10.80;99.90;;;;;;5036819;28;20025;-62
2021/08/24 06:06:40;;;;;;;24.80;12.57;;;10.90;99.90;;;;;;5038804;28;20033;-62
2021/08/24 06:09:08;;;;;;;26.52;13.60;;;11.00;99.90;;;;;;5033523;28;20354;-62
2021/08/24 06:11:36;;;;;;;24.33;13.57;;;11.10;99.90;;;;;;5035452;28;20120;-62
2021/08/24 06:14:05;;;;;;;25.27;13.70;;;11.20;99.90;;;;;;5032238;28;20032;-62
2021/08/24 06:16:32;;;;;;;32.40;14.45;;;11.30;99.90;;;;;;5024226;28;20044;-62
2021/08/24 06:18:57;;;;;;;34.00;16.63;;;11.40;99.90;;;;;;5031680;28;20040;-62
2021/08/24 06:21:23;;;;;;;31.77;17.63;;;11.50;99.90;;;;;;5029675;28;20036;-62
2021/08/24 06:23:49;;;;;;;33.28;17.08;;;11.70;99.90;;;;;;5023643;28;20308;-62
2021/08/24 06:26:15;;;;;;;34.22;17.40;;;11.70;99.90;;;;;;5034705;28;20032;-62
2021/08/24 06:28:41;;;;;;;33.65;17.45;;;11.70;99.90;;;;;;5037017;28;20017;-62
2021/08/24 06:31:09;;;;;;;34.25;17.77;;;11.80;99.90;;;;;;5037633;28;20485;-62
2021/08/24 06:33:37;;;;;;;37.50;17.92;;;12.00;99.90;;;;;;5030928;28;20096;-62
2021/08/24 06:36:03;;;;;;;33.58;18.27;;;12.10;99.90;;;;;;5027475;28;20974;-63
2021/08/24 06:38:31;;;;;;;33.80;18.88;;;12.20;99.90;;;;;;5027540;28;20095;-62
2021/08/24 06:40:57;;;;;;;34.95;17.95;;;12.30;99.90;;;;;;5031835;28;20052;-62
2021/08/24 06:43:23;;;;;;;35.08;18.25;;;12.50;99.90;;;;;;5030214;28;20034;-63
2021/08/24 06:45:49;;;;;;;37.78;19.55;;;12.60;99.90;;;;;;5032579;28;20111;-62
2021/08/24 06:48:14;;;;;;;32.10;18.00;;;12.70;99.90;;;;;;5033265;28;20036;-63
2021/08/24 06:50:40;;;;;;;32.42;17.42;;;12.80;99.90;;;;;;5028262;28;20087;-62
2021/08/24 06:53:06;;;;;;;28.92;16.77;;;12.80;99.90;;;;;;5032956;28;20079;-62
2021/08/24 06:55:32;;;;;;;32.00;18.45;;;13.00;99.90;;;;;;5028808;28;20049;-62
2021/08/24 06:57:59;;;;;;;27.92;15.45;;;13.10;99.90;;;;;;5032224;28;20075;-63
2021/08/24 07:00:26;;;;;;;31.58;15.32;;;13.10;99.90;;;;;;5034369;28;20087;-63
2021/08/24 07:02:53;;;;;;;25.13;12.88;;;13.20;99.90;;;;;;5035031;28;20030;-62
2021/08/24 07:05:21;;;;;;;22.88;10.90;;;13.50;99.90;;;;;;5035082;28;20033;-62
2021/08/24 07:07:46;;;;;;;19.95;9.88;;;13.70;99.90;;;;;;5036790;28;20033;-62
2021/08/24 07:10:15;;;;;;;16.10;9.18;;;13.80;99.90;;;;;;5033155;28;20040;-62
2021/08/24 07:12:41;;;;;;;15.65;8.65;;;13.90;99.90;;;;;;5035418;28;20412;-63
2021/08/24 07:15:09;;;;;;;15.00;7.75;;;14.10;99.90;;;;;;5035936;28;20508;-63
2021/08/24 07:17:35;;;;;;;14.57;8.00;;;14.10;99.90;;;;;;5036563;28;20537;-63
2021/08/24 07:20:03;;;;;;;13.75;7.03;;;14.20;99.90;;;;;;5032824;28;20017;-62
2021/08/24 07:22:29;;;;;;;11.60;6.30;;;14.30;99.90;;;;;;5036743;28;20021;-62
2021/08/24 07:24:55;;;;;;;14.40;7.07;;;14.40;99.90;;;;;;5032596;28;21578;-63
2021/08/24 07:27:21;;;;;;;16.73;6.95;;;14.50;99.90;;;;;;5034591;28;20025;-63
2021/08/24 07:29:46;;;;;;;13.05;6.57;;;14.60;99.90;;;;;;5034707;28;20068;-63
2021/08/24 07:32:12;;;;;;;12.18;6.55;;;14.70;99.90;;;;;;5036165;28;20025;-63
2021/08/24 07:34:37;;;;;;;13.13;6.03;;;14.90;99.90;;;;;;5034869;28;20048;-63
2021/08/24 07:37:04;;;;;;;11.30;5.97;;;15.00;99.90;;;;;;5039042;28;20048;-63
2021/08/24 07:39:29;;;;;;;12.95;5.70;;;15.20;99.90;;;;;;5034084;28;20563;-63
2021/08/24 07:41:55;;;;;;;11.73;6.35;;;15.30;99.90;;;;;;5035194;28;20027;-63
2021/08/24 07:44:24;;;;;;;12.23;6.15;;;15.40;99.90;;;;;;5035638;28;20029;-63
2021/08/24 07:46:50;;;;;;;12.60;6.63;;;15.50;99.90;;;;;;5033164;28;20037;-63
2021/08/24 07:49:16;;;;;;;12.95;5.35;;;15.60;99.90;;;;;;5032966;28;20033;-63
2021/08/24 07:51:43;;;;;;;12.20;5.07;;;15.60;99.90;;;;;;5031728;28;20071;-63
2021/08/24 07:54:09;;;;;;;12.25;4.80;;;15.90;99.90;;;;;;5032895;28;20116;-63
2021/08/24 07:56:34;;;;;;;9.32;4.57;;;15.90;99.90;;;;;;5030934;28;20112;-63
2021/08/24 07:59:00;;;;;;;8.30;3.97;;;16.00;99.90;;;;;;5030769;28;20060;-63
2021/08/24 08:01:26;;;;;;;10.77;4.57;;;16.10;99.90;;;;;;5037892;28;20040;-63
2021/08/24 08:03:52;;;;;;;9.52;3.53;;;16.10;99.90;;;;;;5030968;28;20048;-63
2021/08/24 08:06:17;;;;;;;11.35;4.50;;;16.20;99.90;;;;;;5032397;28;20642;-63
2021/08/24 08:08:43;;;;;;;8.10;3.97;;;16.30;99.90;;;;;;5030196;28;20110;-63
2021/08/24 08:11:08;;;;;;;8.70;3.55;;;16.40;99.90;;;;;;5035748;28;20021;-63
2021/08/24 08:13:34;;;;;;;8.57;3.70;;;16.50;99.90;;;;;;5034258;28;20453;-63
2021/08/24 08:16:00;;;;;;;10.45;3.72;;;16.60;99.90;;;;;;5035040;28;20117;-63
2021/08/24 08:18:26;;;;;;;9.20;3.88;;;16.80;99.90;;;;;;5032387;28;20107;-63
2021/08/24 08:20:52;;;;;;;12.70;3.85;;;17.00;99.90;;;;;;5028221;28;20125;-63
2021/08/24 08:23:20;;;;;;;7.68;3.00;;;17.10;99.90;;;;;;5033891;28;20116;-63
2021/08/24 08:25:46;;;;;;;7.05;2.78;;;17.50;99.90;;;;;;5026881;28;20381;-63
2021/08/24 08:28:12;;;;;;;6.47;2.42;;;17.90;99.90;;;;;;5030246;28;20385;-63
2021/08/24 08:30:42;;;;;;;5.75;1.92;;;18.20;99.90;;;;;;5027239;28;20037;-63
2021/08/24 08:33:08;;;;;;;7.90;2.30;;;18.60;99.90;;;;;;5041531;28;20039;-63
2021/08/24 08:35:33;;;;;;;6.00;1.98;;;18.50;99.90;;;;;;5036254;28;20448;-63
2021/08/24 08:37:59;;;;;;;5.70;1.85;;;19.10;99.90;;;;;;5032741;28;20372;-63
2021/08/24 08:40:34;;;;;;;7.13;2.03;;;19.60;99.90;;;;;;5035037;28;20033;-63
2021/08/24 08:43:21;;;;;;;6.60;2.40;;;20.10;99.90;;;;;;5031873;28;20500;-63
2021/08/24 08:45:50;;;;;;;5.53;2.00;;;20.40;99.90;;;;;;5031519;28;20052;-63
2021/08/24 08:48:21;;;;;;;6.32;2.10;;;19.80;99.90;;;;;;5034269;28;20060;-63
2021/08/24 08:50:57;;;;;;;5.75;2.10;;;19.50;99.90;;;;;;5042556;28;20554;-64
2021/08/24 08:53:47;;;;;;;5.88;2.10;;;19.80;99.90;;;;;;5042185;28;20104;-63
2021/08/24 08:56:34;;;;;;;7.97;2.95;;;19.40;99.90;;;;;;5027846;28;20663;-63
2021/08/24 08:59:21;;;;;;;6.05;2.15;;;19.80;99.90;;;;;;5031836;28;20029;-63
2021/08/24 09:02:29;;;;;;;5.53;1.73;;;20.70;99.90;;;;;;5032434;28;20075;-63
2021/08/24 09:04:57;;;;;;;4.85;1.75;;;20.00;99.90;;;;;;5030225;28;20029;-63
2021/08/24 09:07:36;;;;;;;6.70;1.85;;;19.90;99.90;;;;;;5030706;28;20048;-63
2021/08/24 09:10:05;;;;;;;6.70;1.90;;;19.90;99.90;;;;;;5027285;28;20100;-63
2021/08/24 09:12:33;;;;;;;5.60;1.70;;;21.00;99.90;;;;;;5029206;28;20024;-63
2021/08/24 09:15:00;;;;;;;4.97;1.77;;;21.50;99.90;;;;;;5032535;28;20025;-63
2021/08/24 09:17:35;;;;;;;5.90;1.75;;;21.70;99.90;;;;;;5032664;28;20552;-63
2021/08/24 09:20:35;;;;;;;5.65;1.90;;;21.80;99.90;;;;;;5035150;28;20040;-63
2021/08/24 09:23:03;;;;;;;7.93;1.77;;;21.60;99.20;;;;;;5037964;28;20037;-63
2021/08/24 09:25:50;;;;;;;4.93;1.55;;;22.10;99.90;;;;;;5037427;28;20036;-63
2021/08/24 09:28:27;;;;;;;4.63;1.50;;;22.80;98.00;;;;;;5045107;28;20032;-63
2021/08/24 09:30:54;;;;;;;5.60;2.00;;;23.20;96.90;;;;;;5040732;28;20026;-64
2021/08/24 09:33:20;;;;;;;6.45;2.10;;;23.30;97.60;;;;;;5035767;28;20022;-64
2021/08/24 09:35:47;;;;;;;6.38;2.05;;;23.10;96.10;;;;;;5034401;28;20052;-64
2021/08/24 09:38:28;;;;;;;5.45;1.98;;;22.70;97.20;;;;;;5037990;28;20033;-64
2021/08/24 09:41:15;;;;;;;5.25;2.00;;;22.70;97.00;;;;;;5044607;28;20026;-64
2021/08/24 09:43:41;;;;;;;5.28;1.73;;;22.30;96.60;;;;;;5037937;28;20029;-64
2021/08/24 09:46:16;;;;;;;5.55;1.85;;;21.90;96.80;;;;;;5037336;28;20360;-64
2021/08/24 09:49:03;;;;;;;9.88;1.40;;;21.80;96.80;;;;;;5044481;28;20360;-63
2021/08/24 09:51:43;;;;;;;6.25;2.00;;;21.40;98.00;;;;;;5036650;28;20033;-63
2021/08/24 09:54:32;;;;;;;5.57;1.65;;;21.70;97.60;;;;;;5043658;28;20038;-63
2021/08/24 09:57:06;;;;;;;5.28;1.55;;;21.60;97.10;;;;;;5038652;28;20112;-63
2021/08/24 09:59:36;;;;;;;6.38;1.60;;;22.10;95.80;;;;;;5035491;28;20029;-64
2021/08/24 10:02:04;;;;;;;6.15;2.10;;;22.90;95.70;;;;;;5040783;28;20037;-64
2021/08/24 10:04:47;;;;;;;7.10;1.85;;;23.20;95.00;;;;;;5034823;28;20029;-64
2021/08/24 10:07:13;;;;;;;5.90;1.90;;;23.40;94.20;;;;;;5038517;28;20021;-64
2021/08/24 10:09:42;;;;;;;6.78;1.80;;;24.20;93.10;;;;;;5034729;28;20389;-64
2021/08/24 10:12:14;;;;;;;7.55;2.00;;;24.30;92.60;;;;;;5043033;28;20124;-64
2021/08/24 10:14:41;;;;;;;5.93;2.22;;;25.00;92.90;;;;;;5030256;28;20030;-64
2021/08/24 10:17:13;;;;;;;5.63;1.70;;;24.80;91.80;;;;;;5031171;28;20049;-64
2021/08/24 10:19:43;;;;;;;6.28;2.20;;;24.60;93.50;;;;;;5037364;28;20042;-64
2021/08/24 10:22:12;;;;;;;;;;;24.40;92.80;;;;;;5035151;28;20021;-64
2021/08/24 10:25:06;;;;;;;6.20;1.97;;;24.20;93.30;;;;;;5031929;28;20854;-64
2021/08/24 10:27:45;;;;;;;6.22;2.20;;;24.30;92.60;;;;;;5036812;28;20025;-64
2021/08/24 10:30:34;;;;;;;7.05;2.40;;;23.90;93.70;;;;;;5032617;28;20026;-64
2021/08/24 10:33:00;;;;;;;6.77;2.50;;;23.70;93.50;;;;;;5034707;28;20111;-64
2021/08/24 10:35:30;;;;;;;5.68;1.98;;;23.40;94.40;;;;;;5040312;28;20268;-64
2021/08/24 10:37:57;;;;;;;6.40;2.30;;;23.30;95.30;;;;;;5032903;28;20036;-64
2021/08/24 10:40:41;;;;;;;7.25;2.17;;;24.40;93.10;;;;;;5033491;28;20366;-64
2021/08/24 10:43:09;;;;;;;7.85;2.10;;;24.60;92.60;;;;;;5034056;28;20049;-65
2021/08/24 10:45:38;;;;;;;6.10;1.98;;;24.10;92.50;;;;;;5034892;28;20036;-65
2021/08/24 10:48:08;;;;;;;7.50;2.20;;;23.10;94.50;;;;;;5035488;28;20469;-64
2021/08/24 10:50:46;;;;;;;7.18;2.50;;;22.30;94.60;;;;;;5040414;28;20049;-64
2021/08/24 10:54:00;;;;;;;5.90;1.92;;;22.00;94.80;;;;;;5037644;28;20022;-64
2021/08/24 10:56:51;;;;;;;6.03;1.98;;;22.50;94.30;;;;;;5033335;28;20029;-64
2021/08/24 10:59:33;;;;;;;6.47;1.90;;;23.20;94.30;;;;;;5031372;28;20055;-64
2021/08/24 11:02:27;;;;;;;7.43;1.83;;;23.90;93.30;;;;;;5035585;28;20033;-64
2021/08/24 11:05:10;;;;;;;6.13;1.90;;;24.70;93.50;;;;;;5031914;28;20091;-64
2021/08/24 11:08:12;;;;;;;5.53;1.70;;;24.00;93.70;;;;;;5037070;28;20880;-64
2021/08/24 11:10:53;;;;;;;5.82;1.85;;;23.60;93.60;;;;;;5026577;28;20042;-65
2021/08/24 11:13:52;;;;;;;5.60;1.83;;;23.90;92.60;;;;;;5027063;28;20025;-64
2021/08/24 11:16:34;;;;;;;6.20;1.95;;;24.90;92.80;;;;;;5028528;28;20025;-65
2021/08/24 11:19:39;;;;;;;5.22;1.73;;;25.30;90.60;;;;;;5034504;28;20133;-64
2021/08/24 11:22:38;;;;;;;6.55;1.85;;;25.00;90.20;;;;;;5035556;28;20071;-64
2021/08/24 11:25:25;;;;;;;7.45;1.88;;;23.90;92.90;;;;;;5028140;28;20032;-64
2021/08/24 11:27:56;;;;;;;5.75;1.80;;;24.50;92.50;;;;;;5030744;28;20033;-64
2021/08/24 11:30:30;;;;;;;6.65;2.15;;;23.80;92.10;;;;;;5025639;28;20484;-64
2021/08/24 11:33:04;;;;;;;6.43;1.88;;;23.10;92.80;;;;;;5033985;28;20029;-64
2021/08/24 11:35:42;;;;;;;4.68;1.45;;;24.00;92.70;;;;;;5036487;28;20033;-64
2021/08/24 11:38:15;;;;;;;7.38;1.73;;;24.50;90.70;;;;;;5029856;28;20350;-64
2021/08/24 11:41:06;;;;;;;5.03;1.67;;;25.20;89.90;;;;;;5033989;28;20387;-65
2021/08/24 11:43:50;;;;;;;5.10;1.48;;;26.00;86.20;;;;;;5029987;28;20062;-65
2021/08/24 11:46:35;;;;;;;4.40;1.60;;;26.60;86.80;;;;;;5028907;28;20017;-64
2021/08/24 11:49:14;;;;;;;3.88;1.40;;;27.40;84.00;;;;;;5031082;28;20358;-66
2021/08/24 11:51:47;;;;;;;6.10;1.60;;;26.60;85.00;;;;;;5040154;28;20033;-65
2021/08/24 11:54:44;;;;;;;4.07;1.30;;;26.30;83.90;;;;;;5034669;28;20025;-65
2021/08/24 11:57:27;;;;;;;4.28;1.40;;;26.10;83.10;;;;;;5030673;28;20044;-65
2021/08/24 11:59:54;;;;;;;5.85;1.50;;;26.10;84.20;;;;;;5033770;28;20052;-65
2021/08/24 12:02:50;;;;;;;5.32;1.77;;;25.80;83.20;;;;;;5041668;28;20439;-65
2021/08/24 12:05:33;;;;;;;7.18;1.67;;;25.10;84.90;;;;;;5032746;28;20029;-65
2021/08/24 12:08:04;;;;;;;3.90;1.15;;;24.50;85.80;;;;;;5035930;28;20041;-65
2021/08/24 12:10:36;;;;;;;5.38;1.38;;;24.90;86.20;;;;;;5033425;28;20099;-65
2021/08/24 12:13:09;;;;;;;8.90;1.50;;;27.10;81.70;;;;;;5032512;28;20080;-65
2021/08/24 12:15:39;;;;;;;5.38;1.63;;;27.60;79.00;;;;;;5043468;28;20119;-65
2021/08/24 12:18:17;;;;;;;6.22;1.70;;;27.00;79.50;;;;;;5033644;28;20473;-65
2021/08/24 12:20:47;;;;;;;5.30;1.50;;;26.10;82.90;;;;;;5028020;28;20112;-65
2021/08/24 12:23:33;;;;;;;4.35;1.38;;;26.10;81.30;;;;;;5037526;28;20029;-65
2021/08/24 12:25:59;;;;;;;6.55;1.77;;;27.70;80.60;;;;;;5034211;28;20026;-64
2021/08/24 12:28:25;;;;;;;5.70;1.58;;;27.50;78.40;;;;;;5036661;28;20372;-64
2021/08/24 12:30:59;;;;;;;4.95;1.38;;;27.50;78.80;;;;;;5032310;28;20033;-64
2021/08/24 12:33:32;;;;;;;6.43;1.58;;;28.50;77.00;;;;;;5031031;28;20025;-64
2021/08/24 12:36:20;;;;;;;5.78;1.50;;;28.00;77.10;;;;;;5039888;28;20231;-64
2021/08/24 12:38:55;;;;;;;4.38;1.20;;;28.90;77.70;;;;;;5037280;28;20477;-65
2021/08/24 12:41:35;;;;;;;4.95;1.55;;;28.80;73.50;;;;;;5035633;28;20025;-64
2021/08/24 12:44:13;;;;;;;4.60;1.40;;;27.60;76.30;;;;;;5035017;28;20032;-65
2021/08/24 12:47:08;;;;;;;5.22;1.30;;;26.80;77.40;;;;;;5032290;28;20491;-64
2021/08/24 12:49:33;;;;;;;7.65;1.50;;;27.40;77.80;;;;;;5038525;28;20046;-64
2021/08/24 12:52:14;;;;;;;5.50;1.50;;;25.80;76.60;;;;;;5040097;28;20021;-64
2021/08/24 12:55:05;;;;;;;3.92;1.20;;;25.60;77.80;;;;;;5031061;28;20029;-64
2021/08/24 12:57:43;;;;;;;8.18;1.55;;;25.90;80.20;;;;;;5034144;28;20029;-65
2021/08/24 13:00:20;;;;;;;6.30;1.38;;;27.30;79.60;;;;;;5038874;28;20108;-65
2021/08/24 13:03:16;;;;;;;4.43;1.33;;;28.00;75.40;;;;;;5042677;28;20032;-64
2021/08/24 13:05:42;;;;;;;5.60;1.55;;;27.10;73.10;;;;;;5043723;28;20442;-64
2021/08/24 13:08:28;;;;;;;4.10;1.30;;;27.40;74.80;;;;;;5041274;28;20050;-64